Meteo Giornale » Osservazioni meteo Italia » Verona-Villafranca

ore: 23:50 - Osservazioni Meteo Verona-Villafranca
Lat. 45° 23' N Lon. 10° 52' E Alt. 67 metri s.l.m.

foschia Europe/Rome

14 °C

Foschia

Temp. 24 Ore

9 °C

19 °C

Nord

1.8 Km/h

Dew point 14 °C

Umidità 100 %

Visibilità  5 Km

Il sole sorge alle ore 05:43

Il sole tramonta alle ore 20:42

Data e Ora Cielo e Fenomeni T °C DP °C Um. % Pres. hPa Vis. km Vento km/h
Ieri h: 23:50 foschia Foschia 14 14 100 1004 5 N 1.8
Ieri h: 23:20 foschia Foschia 15 14 93 1005 5 N 1.8
Ieri h: 22:50 molto_nuvoloso Molto Nuvoloso 15 14 93 1005 8 N 1.8
Ieri h: 22:20 molto_nuvoloso Molto Nuvoloso 15 14 93 1005 8 N 3.7
Ieri h: 21:20 molto_nuvoloso Molto Nuvoloso 15 14 93 1005 10 N 1.8
Ieri h: 20:50 molto_nuvoloso Molto Nuvoloso 16 13 82 1005 10 N 1.8
Ieri h: 20:20 molto_nuvoloso Molto Nuvoloso 16 14 87 1005 10 N 5.5
Ieri h: 19:50 molto_nuvoloso Molto Nuvoloso 16 14 87 1006 10 N 3.7
Ieri h: 19:20 coperto_pioggia Pioggia Debole 16 14 87 1006 10 N 5.5
Ieri h: 18:50 molto_nuvoloso Molto Nuvoloso 16 13 82 1006 10 N 9.3
Ieri h: 18:20 molto_nuvoloso Molto Nuvoloso 16 13 82 1006 8 N/NE 9.3
Ieri h: 17:50 molto_nuvoloso Molto Nuvoloso 16 14 87 1006 8 N 5.5
Ieri h: 17:20 molto_nuvoloso Molto Nuvoloso 16 13 82 1006 10 NE 7.4
Ieri h: 16:50 coperto_pioggia Pioviggine Leggera 16 14 87 1007 6 N/NE 9.3
Ieri h: 16:20 coperto_pioggia Pioggia Debole 16 13 82 1007 6 N 5.5
Ieri h: 15:50 coperto_pioggia Pioggia Debole 15 13 87 1008 6 N 5.5
Ieri h: 15:20 coperto_pioggia Pioggia Debole 15 13 87 1008 6 N 5.5
Ieri h: 14:50 coperto_pioggia Pioggia Debole 15 13 87 1008 8 S/SE 9.3
Ieri h: 14:20 molto_nuvoloso Molto Nuvoloso 17 13 77 1008 8 N 3.7
Ieri h: 13:50 coperto_pioggia Pioggia 17 13 77 1008 6 SE 11.1
Ieri h: 13:20 molto_nuvoloso Molto Nuvoloso 18 12 67 1008 10 N 5.5
Ieri h: 12:50 molto_nuvoloso Molto Nuvoloso 19 12 63 1008 10 N 5.5
Ieri h: 12:20 molto_nuvoloso Molto Nuvoloso 18 11 63 1008 10 N 5.5
Ieri h: 11:50 molto_nuvoloso Molto Nuvoloso 17 11 67 1008 10 N 5.5
Ieri h: 11:20 molto_nuvoloso Molto Nuvoloso 16 11 72 1008 10 S/SE 7.4
Ieri h: 10:50 nuvoloso Nuvoloso 16 12 77 1008 10 SE 7.4
Ieri h: 10:20 nuvoloso Nuvoloso 16 12 77 1008 10 SE 7.4
Ieri h: 09:50 poco_nuvoloso Poco Nuvoloso 15 12 82 1008 9 E/SE 7.4
Ieri h: 09:20 poco_nuvoloso Poco Nuvoloso 14 11 82 1008 9 E 7.4
Ieri h: 08:50 sereno Sereno 13 11 87 1008 8 E 7.4
Ieri h: 08:20 sereno Sereno 13 11 87 1008 8 N 5.5
Ieri h: 07:50 sereno Sereno 12 11 93 1007 8 N 1.8
Ieri h: 07:20 sereno Sereno 12 11 93 1007 8 N 1.8
Ieri h: 06:50 sereno Sereno 11 11 100 1007 6 N 1.8
Ieri h: 06:20 sereno Sereno 10 10 100 1007 5 N 3.7
Ieri h: 05:50 sereno Sereno 9 9 100 1007 4 N 1.8
Ieri h: 05:20 sereno Sereno 9 9 100 1007 5 N 1.8
Ieri h: 04:20 sereno Sereno 10 9 93 1007 4 N 1.8
Ieri h: 03:50 sereno Sereno 10 10 100 1007 0.7 N 0
Ieri h: 03:20 sereno Sereno 11 10 93 1007 8 N 3.7
Ieri h: 02:50 poco_nuvoloso Poco Nuvoloso 12 11 93 1007 8 N 3.7
Ieri h: 02:20 molto_nuvoloso Molto Nuvoloso 13 11 87 1007 10 N 5.5
Ieri h: 01:50 molto_nuvoloso Molto Nuvoloso 13 11 87 1007 10 N 5.5
Ieri h: 01:20 molto_nuvoloso Molto Nuvoloso 13 11 87 1007 10 N 5.5
Ieri h: 00:50 coperto Coperto 13 12 93 1007 8 N/NO 7.4